Time;durP1;ratioP1;P1;durP2;ratioP2;P2;SDS_P1;SDS_P2;PMS_P1;PMS_P2;Temp;Humidity;BMP_temperature;BMP_pressure;BME280_temperature;BME280_humidity;BME280_pressure;Samples;Min_cycle;Max_cycle;Signal;HPM_P1;HPM_P2
2022/09/25 00:00:32;;;;;;;9.02;4.95;;;;;;;29.32;63.43;100743.81;5074328;27;65816;-47
2022/09/25 00:03:04;;;;;;;5.68;5.15;;;;;;;29.35;63.83;100748.78;5078420;28;71606;-41
2022/09/25 00:05:39;;;;;;;5.82;4.75;;;;;;;29.38;63.39;100753.75;5080232;27;65885;-40
2022/09/25 00:08:13;;;;;;;12.15;4.70;;;;;;;29.46;62.77;100760.00;5075438;28;70851;-40
2022/09/25 00:10:48;;;;;;;6.85;5.10;;;;;;;29.37;62.89;100740.47;5078057;28;66356;-40
2022/09/25 00:13:21;;;;;;;10.43;4.78;;;;;;;29.48;62.22;100764.13;5073206;28;70753;-45
2022/09/25 00:15:56;;;;;;;7.30;4.53;;;;;;;29.46;62.76;100760.00;5076127;28;66219;-39
2022/09/25 00:21:20;;;;;;;5.25;4.57;;;;;;;29.50;63.43;100772.00;5075990;28;67026;-41
2022/09/25 00:23:53;;;;;;;7.28;4.53;;;;;;;29.46;63.00;100766.22;5078165;27;69140;-43
2022/09/25 00:26:28;;;;;;;13.77;4.30;;;;;;;29.15;63.70;100721.03;5075673;28;67208;-41
2022/09/25 00:29:01;;;;;;;7.75;4.47;;;;;;;29.56;64.05;100790.94;5078065;27;69969;-40
2022/09/25 00:31:34;;;;;;;16.55;5.57;;;;;;;29.60;64.22;100800.25;5073989;28;67131;-39
2022/09/25 00:34:07;;;;;;;17.33;5.72;;;;;;;29.62;66.63;100805.47;5076522;27;70034;-40
2022/09/25 00:36:40;;;;;;;10.77;6.72;;;;;;;29.68;68.14;100810.03;5072909;28;66257;-41
2022/09/25 00:39:13;;;;;;;9.60;6.95;;;;;;;29.71;68.42;100817.72;5076156;28;69083;-38
2022/09/25 00:41:45;;;;;;;9.90;7.85;;;;;;;29.75;68.81;100818.13;5076147;28;66580;-39
2022/09/25 00:44:55;;;;;;;7.22;6.53;;;;;;;29.70;70.36;100821.47;5075947;28;70805;-40
2022/09/25 00:47:42;;;;;;;9.85;6.28;;;;;;;29.79;70.27;100819.38;5074805;28;66521;-40
2022/09/25 00:51:06;;;;;;;7.45;6.85;;;;;;;29.72;71.37;100832.88;5076288;28;70661;-38
2022/09/25 00:53:40;;;;;;;7.05;6.35;;;;;;;29.83;70.82;100826.81;5027071;27;65590;-41
2022/09/25 00:56:13;;;;;;;10.85;6.63;;;;;;;29.65;71.03;100802.34;5073164;27;70838;-38
2022/09/25 00:58:47;;;;;;;6.50;5.82;;;;;;;29.90;71.03;100848.44;5078935;28;65900;-39
2022/09/25 01:01:21;;;;;;;7.68;5.75;;;;;;;29.97;70.52;100848.41;5077861;28;70866;-38
2022/09/25 01:03:55;;;;;;;7.07;5.32;;;;;;;29.98;72.39;100850.91;5074241;28;67505;-38
2022/09/25 01:06:28;;;;;;;5.85;5.15;;;;;;;29.98;72.84;100850.06;5075286;28;71046;-38
2022/09/25 01:09:01;;;;;;;7.78;5.25;;;;;;;30.04;71.76;100844.63;5072586;28;66349;-40
2022/09/25 01:11:34;;;;;;;8.05;5.25;;;;;;;30.08;72.56;100853.13;5076671;27;70819;-39
2022/09/25 01:14:08;;;;;;;5.60;5.10;;;;;;;30.12;72.59;100851.66;5079214;27;66928;-41
2022/09/25 01:16:52;;;;;;;5.47;4.97;;;;;;;29.92;72.30;100823.84;5077176;28;70264;-40
2022/09/25 01:19:31;;;;;;;6.10;5.60;;;;;;;30.16;72.75;100861.00;5076671;28;66324;-40
2022/09/25 01:22:13;;;;;;;8.43;4.80;;;;;;;30.19;72.22;100876.78;5072025;28;70467;-39
2022/09/25 01:24:54;;;;;;;10.65;5.43;;;;;;;30.20;72.69;100864.94;5077160;28;66990;-38
2022/09/25 01:27:42;;;;;;;10.75;5.38;;;;;;;30.28;71.76;100867.44;5075950;28;70897;-39
2022/09/25 01:30:19;;;;;;;9.27;5.65;;;;;;;30.28;72.76;100850.34;5071997;28;66240;-38
2022/09/25 01:33:04;;;;;;;6.10;5.05;;;;;;;30.33;73.33;100864.06;5076860;28;70443;-38
2022/09/25 01:36:05;;;;;;;5.88;5.28;;;;;;;30.36;73.59;100868.19;5076860;28;66729;-40
2022/09/25 01:38:52;;;;;;;10.25;5.57;;;;;;;30.38;73.47;100856.13;5073840;28;69733;-40
2022/09/25 01:41:39;;;;;;;8.77;5.47;;;;;;;29.58;70.15;100705.03;5070333;27;67075;-40
2022/09/25 01:44:22;;;;;;;5.18;4.78;;;;;;;30.63;69.57;100867.00;5073772;28;70651;-42
2022/09/25 01:47:01;;;;;;;5.63;5.03;;;;;;;30.55;69.44;100845.59;5076408;27;66707;-39
2022/09/25 01:49:57;;;;;;;5.85;4.38;;;;;;;30.60;69.38;100864.72;5074999;28;70106;-40
2022/09/25 01:52:41;;;;;;;5.68;4.85;;;;;;;30.76;68.94;100874.19;5075849;28;65988;-40
2022/09/25 01:55:41;;;;;;;5.70;4.43;;;;;;;30.63;68.80;100867.00;5074823;28;70824;-41
2022/09/25 01:58:16;;;;;;;5.30;4.80;;;;;;;30.36;67.80;100797.84;5069130;28;66696;-38
2022/09/25 02:00:55;;;;;;;5.15;4.65;;;;;;;30.53;68.32;100820.63;5074212;28;70291;-40
2022/09/25 02:03:47;;;;;;;4.93;4.50;;;;;;;30.86;68.13;100871.00;5064231;28;66678;-39
2022/09/25 02:06:21;;;;;;;5.55;4.10;;;;;;;30.98;67.92;100881.97;5081335;28;70085;-41
2022/09/25 02:09:12;;;;;;;5.38;4.35;;;;;;;31.03;67.45;100884.84;5084181;28;66446;-38
2022/09/25 02:11:49;;;;;;;4.68;4.28;;;;;;;31.07;67.79;100892.31;5085601;28;71052;-39
2022/09/25 02:14:50;;;;;;;4.78;4.20;;;;;;;30.46;67.53;100812.56;5072112;28;66833;-39
2022/09/25 02:20:35;;;;;;;6.13;4.05;;;;;;;30.75;67.35;100823.78;5085218;28;66263;-39
2022/09/25 02:23:43;;;;;;;4.80;4.40;;;;;;;31.12;67.54;100889.78;5083441;28;70862;-38
2022/09/25 02:26:35;;;;;;;4.78;4.07;;;;;;;30.86;67.23;100846.66;5081555;28;67544;-39
2022/09/25 02:29:08;;;;;;;5.38;4.88;;;;;;;31.30;66.96;100890.84;5084534;28;70830;-40
2022/09/25 02:31:58;;;;;;;6.28;4.43;;;;;;;30.98;66.66;100834.06;5081247;28;67300;-41
2022/09/25 02:34:32;;;;;;;4.90;4.38;;;;;;;31.36;66.68;100885.41;5084693;27;70556;-40
2022/09/25 02:37:15;;;;;;;5.63;4.15;;;;;;;31.36;66.72;100887.28;5085479;27;66715;-41
2022/09/25 02:39:51;;;;;;;5.05;4.40;;;;;;;30.94;66.30;100801.16;5080361;28;70285;-39
2022/09/25 02:42:39;;;;;;;5.90;3.63;;;;;;;31.47;66.58;100873.00;5084077;28;66918;-42
2022/09/25 02:45:33;;;;;;;4.45;4.10;;;;;;;31.51;66.11;100871.50;5077364;28;70531;-40
2022/09/25 02:48:10;;;;;;;4.32;3.67;;;;;;;31.54;66.52;100870.22;5070177;27;67227;-41
2022/09/25 02:51:20;;;;;;;4.07;3.58;;;;;;;31.30;66.73;100852.91;5073491;28;70052;-41
2022/09/25 02:54:19;;;;;;;4.68;4.22;;;;;;;31.12;66.45;100805.78;5082952;28;67078;-41
2022/09/25 02:57:01;;;;;;;4.30;3.47;;;;;;;31.13;66.27;100791.16;5081219;28;70896;-40
2022/09/25 02:59:40;;;;;;;4.45;3.60;;;;;;;30.82;66.04;100731.69;5082101;28;66551;-38
2022/09/25 03:02:15;;;;;;;5.40;3.47;;;;;;;31.29;68.00;100840.44;5080504;28;71153;-42
2022/09/25 03:04:50;;;;;;;4.75;4.35;;;;;;;30.65;68.70;100751.19;5083028;28;67148;-41
2022/09/25 03:07:22;;;;;;;9.95;4.20;;;;;;;31.29;69.24;100856.69;5085764;27;70897;-41
2022/09/25 03:09:57;;;;;;;5.00;3.83;;;;;;;31.25;69.57;100855.47;5078551;27;67031;-40
2022/09/25 03:12:35;;;;;;;4.25;3.83;;;;;;;31.19;69.63;100861.78;5082489;27;70176;-39
2022/09/25 03:15:10;;;;;;;4.25;3.85;;;;;;;31.21;69.93;100857.78;5080020;28;67093;-40
2022/09/25 03:17:42;;;;;;;5.65;3.83;;;;;;;31.14;70.03;100843.47;5081150;27;69894;-40
2022/09/25 03:20:15;;;;;;;3.92;3.58;;;;;;;31.16;70.29;100846.78;5079071;28;66913;-39
2022/09/25 03:22:48;;;;;;;5.20;4.07;;;;;;;31.21;70.41;100841.53;5079491;28;71290;-39
2022/09/25 03:25:21;;;;;;;4.63;3.22;;;;;;;31.24;70.64;100837.56;5080437;27;66931;-40
2022/09/25 03:27:56;;;;;;;5.07;3.78;;;;;;;31.28;70.52;100833.34;5073142;28;71211;-41
2022/09/25 03:30:28;;;;;;;4.72;4.25;;;;;;;30.85;70.48;100769.16;5080281;27;66185;-39
2022/09/25 03:33:01;;;;;;;3.90;3.30;;;;;;;31.28;70.73;100827.91;5075991;28;70880;-39
2022/09/25 03:35:34;;;;;;;6.00;3.47;;;;;;;31.26;70.57;100819.16;5076238;28;66113;-39
2022/09/25 03:38:07;;;;;;;3.97;3.67;;;;;;;31.33;70.59;100830.78;5080726;28;69857;-39
2022/09/25 03:40:40;;;;;;;3.95;3.55;;;;;;;31.27;71.39;100810.81;5078482;28;67529;-39
2022/09/25 03:43:12;;;;;;;3.75;3.45;;;;;;;31.28;70.65;100817.06;5078940;28;69480;-40
2022/09/25 03:45:42;;;;;;;7.90;7.10;;;;;;;30.97;71.16;100761.94;5078045;28;66292;-38
2022/09/25 03:48:16;;;;;;;13.57;12.40;;;;;;;31.44;70.57;100821.09;5078793;27;70881;-41
2022/09/25 03:50:49;;;;;;;25.23;22.38;;;;;;;31.43;70.34;100825.72;5074361;28;67142;-40
2022/09/25 03:53:24;;;;;;;26.67;23.77;;;;;;;31.41;70.98;100810.72;5079512;27;70883;-39
2022/09/25 03:55:57;;;;;;;27.13;24.23;;;;;;;31.39;70.54;100805.50;5075930;28;66861;-41
2022/09/25 03:58:30;;;;;;;25.77;22.38;;;;;;;31.46;70.43;100809.00;5057585;28;70831;-39
2022/09/25 04:01:03;;;;;;;18.35;16.73;;;;;;;31.42;70.58;100802.34;5078224;28;66649;-39
2022/09/25 04:03:36;;;;;;;15.88;14.52;;;;;;;31.30;69.98;100779.75;5067991;28;70836;-41
2022/09/25 04:06:08;;;;;;;12.13;10.68;;;;;;;31.50;69.85;100804.75;5080158;28;66924;-41
2022/09/25 04:08:41;;;;;;;9.65;8.75;;;;;;;31.56;68.89;100798.41;5073295;27;70752;-39
2022/09/25 04:11:15;;;;;;;10.52;8.07;;;;;;;31.54;69.09;100789.72;5071566;28;66426;-41
2022/09/25 04:13:48;;;;;;;8.25;7.40;;;;;;;31.51;68.83;100773.91;5077432;28;69271;-39
2022/09/25 04:16:21;;;;;;;7.65;6.85;;;;;;;31.56;69.50;100771.31;5074798;28;66872;-38
2022/09/25 04:18:53;;;;;;;8.63;6.22;;;;;;;31.47;68.84;100756.41;5083730;27;70792;-40
2022/09/25 04:21:26;;;;;;;5.00;4.10;;;;;;;31.59;68.82;100765.47;5071163;27;66647;-40
2022/09/25 04:26:52;;;;;;;6.00;4.45;;;;;;;31.63;69.22;100746.84;5069319;27;66946;-39
2022/09/25 04:29:25;;;;;;;8.52;4.30;;;;;;;31.56;69.09;100722.50;5075534;28;71157;-40
2022/09/25 04:34:48;;;;;;;6.63;4.07;;;;;;;31.73;68.21;100703.75;5071059;28;70969;-39
2022/09/25 04:37:25;;;;;;;4.55;3.42;;;;;;;32.01;67.34;100718.56;5077117;28;67269;-39
2022/09/25 04:39:58;;;;;;;6.50;3.38;;;;;;;32.08;67.53;100713.06;5075716;27;70853;-40
2022/09/25 04:42:30;;;;;;;8.50;3.47;;;;;;;32.13;67.09;100710.47;5073301;28;67043;-40
2022/09/25 04:45:03;;;;;;;4.38;3.97;;;;;;;32.19;66.72;100710.38;5073537;28;70722;-40
2022/09/25 04:47:35;;;;;;;8.27;3.63;;;;;;;32.20;66.85;100701.16;5076134;28;66067;-40
2022/09/25 04:50:08;;;;;;;5.60;3.42;;;;;;;32.28;66.55;100694.56;5077153;28;69958;-39
2022/09/25 04:52:40;;;;;;;5.88;3.03;;;;;;;32.30;66.38;100684.31;5076233;28;65554;-39
2022/09/25 04:55:13;;;;;;;6.78;3.10;;;;;;;32.26;66.18;100667.66;5078464;27;70643;-41
2022/09/25 04:57:53;;;;;;;4.45;3.00;;;;;;;32.38;65.87;100675.81;5074591;28;65678;-39
2022/09/25 05:00:31;;;;;;;7.72;3.58;;;;;;;31.66;65.89;100580.16;5070906;28;70094;-39
2022/09/25 05:03:04;;;;;;;4.47;3.60;;;;;;;32.13;66.26;100656.22;5073054;28;66165;-39
2022/09/25 05:05:37;;;;;;;4.53;3.22;;;;;;;32.09;66.74;100646.88;5072222;28;70896;-40
2022/09/25 05:08:10;;;;;;;10.25;4.40;;;;;;;32.19;66.51;100634.38;5076578;27;65761;-43
2022/09/25 05:10:43;;;;;;;8.95;3.88;;;;;;;32.28;66.05;100624.00;5070378;28;71262;-42
2022/09/25 05:13:16;;;;;;;5.28;3.60;;;;;;;32.34;66.07;100625.75;5074305;28;67037;-41
2022/09/25 05:15:49;;;;;;;6.90;4.00;;;;;;;32.31;65.73;100604.50;5074670;28;70778;-41
2022/09/25 05:18:23;;;;;;;9.20;4.50;;;;;;;32.42;65.95;100605.56;5078724;27;65636;-41
2022/09/25 05:20:56;;;;;;;5.40;3.65;;;;;;;32.46;65.65;100601.38;5078190;28;70654;-41
2022/09/25 05:23:29;;;;;;;5.97;3.17;;;;;;;32.47;65.52;100598.41;5076208;28;67019;-41
2022/09/25 05:26:02;;;;;;;5.90;3.70;;;;;;;32.32;65.95;100589.91;5074043;28;70619;-40
2022/09/25 05:28:34;;;;;;;14.38;3.67;;;;;;;31.98;65.92;100576.09;5076750;28;65712;-39
2022/09/25 05:31:07;;;;;;;5.43;3.05;;;;;;;31.94;65.18;100603.94;5073317;28;70647;-40
2022/09/25 05:33:39;;;;;;;13.75;2.95;;;;;;;31.53;64.54;100549.47;5074976;28;66112;-39
2022/09/25 05:36:12;;;;;;;11.98;3.00;;;;;;;31.66;64.08;100563.88;5074220;28;70461;-40
2022/09/25 05:38:45;;;;;;;10.82;3.70;;;;;;;31.59;63.51;100586.50;5076609;28;66675;-41
2022/09/25 05:41:17;;;;;;;8.77;2.97;;;;;;;31.52;62.59;100574.94;5074426;28;70110;-43
2022/09/25 05:43:50;;;;;;;19.67;3.45;;;;;;;31.42;61.96;100569.22;5074391;27;66048;-40
2022/09/25 05:46:23;;;;;;;6.32;2.30;;;;;;;31.37;61.27;100572.66;5074867;28;70334;-41
2022/09/25 05:48:55;;;;;;;4.90;2.40;;;;;;;31.34;60.81;100569.53;5074819;27;66053;-42
2022/09/25 05:51:28;;;;;;;12.70;2.70;;;;;;;31.13;60.25;100552.75;5073611;28;69416;-41
2022/09/25 05:54:01;;;;;;;7.45;2.38;;;;;;;31.22;60.12;100565.97;5066240;28;67032;-41
2022/09/25 05:56:33;;;;;;;3.25;2.10;;;;;;;31.19;59.22;100550.16;5075651;28;70875;-42
2022/09/25 05:59:06;;;;;;;6.38;2.10;;;;;;;31.03;58.56;100528.06;5074206;28;66397;-41
2022/09/25 06:01:40;;;;;;;5.15;1.88;;;;;;;31.11;58.74;100546.72;5073419;28;70757;-41
2022/09/25 06:04:12;;;;;;;3.92;2.20;;;;;;;31.08;58.31;100547.19;5072059;28;64730;-41
2022/09/25 06:06:45;;;;;;;6.63;2.70;;;;;;;30.93;57.66;100523.22;5077014;27;70096;-40
2022/09/25 06:09:18;;;;;;;2.97;1.90;;;;;;;31.01;57.51;100518.53;5076040;28;66000;-40
2022/09/25 06:11:52;;;;;;;2.33;1.52;;;;;;;30.99;57.06;100518.78;5073348;27;70260;-44
2022/09/25 06:14:25;;;;;;;3.47;1.80;;;;;;;30.95;56.68;100517.56;5059969;28;66916;-43
2022/09/25 06:16:58;;;;;;;2.30;1.67;;;;;;;30.94;56.48;100507.78;5073336;28;71248;-41
2022/09/25 06:19:31;;;;;;;1.70;1.40;;;;;;;30.89;55.59;100521.19;5077178;27;66939;-40
2022/09/25 06:22:03;;;;;;;1.90;1.33;;;;;;;30.87;56.11;100517.88;5059041;28;70800;-39
2022/09/25 06:24:36;;;;;;;2.50;1.48;;;;;;;30.83;55.33;100522.13;5074875;27;66549;-40
2022/09/25 06:27:09;;;;;;;5.20;1.83;;;;;;;30.87;55.39;100529.56;5076036;28;71020;-40
2022/09/25 06:29:42;;;;;;;1.48;1.23;;;;;;;30.86;55.00;100527.06;5072543;28;66286;-40
2022/09/25 06:32:15;;;;;;;1.42;1.10;;;;;;;30.76;54.07;100515.91;5073016;28;70163;-41
2022/09/25 06:34:49;;;;;;;2.83;1.20;;;;;;;31.04;56.02;100509.97;5075517;28;67149;-41
2022/09/25 06:37:21;;;;;;;2.67;1.70;;;;;;;31.10;55.63;100501.72;5075367;28;70341;-40
2022/09/25 06:39:53;;;;;;;6.10;1.45;;;;;;;31.12;54.93;100482.50;5078441;28;66984;-41
2022/09/25 06:42:26;;;;;;;2.00;1.70;;;;;;;31.19;54.96;100477.00;5076241;28;70685;-43
2022/09/25 06:44:59;;;;;;;6.03;1.80;;;;;;;31.11;54.34;100448.38;5076038;27;65830;-42
2022/09/25 06:47:31;;;;;;;5.55;1.73;;;;;;;31.15;54.23;100444.97;5080639;28;71024;-41
2022/09/25 06:50:04;;;;;;;2.80;1.55;;;;;;;31.22;54.04;100446.75;5083640;28;66513;-40
2022/09/25 06:52:43;;;;;;;1.77;1.50;;;;;;;31.10;51.83;100434.00;5074575;28;71093;-42
2022/09/25 06:55:16;;;;;;;4.15;1.50;;;;;;;31.19;53.01;100436.38;5080254;28;67153;-40
2022/09/25 06:57:49;;;;;;;9.90;2.28;;;;;;;31.15;52.88;100431.41;5076565;28;70682;-42
2022/09/25 07:00:21;;;;;;;6.60;1.75;;;;;;;31.22;52.75;100439.44;5079224;28;65916;-40
2022/09/25 07:05:47;;;;;;;7.05;1.50;;;;;;;31.25;51.73;100430.84;5078837;28;66944;-41
2022/09/25 07:08:20;;;;;;;5.68;1.50;;;;;;;31.23;51.86;100429.41;5074484;28;70823;-40
2022/09/25 07:10:54;;;;;;;4.40;1.90;;;;;;;30.77;51.72;100365.97;5071909;28;66549;-41
2022/09/25 07:13:30;;;;;;;5.38;1.83;;;;;;;30.80;51.81;100381.75;5078997;28;71013;-41
2022/09/25 07:16:09;;;;;;;4.55;1.65;;;;;;;30.73;50.82;100360.19;5079029;27;66010;-43
2022/09/25 07:18:42;;;;;;;7.72;1.90;;;;;;;31.26;51.54;100450.63;5076340;28;70772;-41
2022/09/25 07:21:17;;;;;;;7.03;1.63;;;;;;;30.87;50.84;100393.31;5073601;28;66760;-43
2022/09/25 07:23:51;;;;;;;10.50;2.05;;;;;;;31.27;50.76;100438.75;5078226;27;69793;-43
2022/09/25 07:26:29;;;;;;;2.42;1.83;;;;;;;31.23;49.77;100434.84;5076216;27;66168;-42
2022/09/25 07:29:05;;;;;;;9.65;2.42;;;;;;;30.87;50.50;100363.50;5074940;28;69989;-44
2022/09/25 07:31:37;;;;;;;3.75;1.48;;;;;;;31.22;50.72;100416.94;5077692;28;66666;-43
2022/09/25 07:34:10;;;;;;;4.03;1.83;;;;;;;31.23;51.16;100421.28;5074991;28;70826;-43
2022/09/25 07:36:43;;;;;;;3.42;2.10;;;;;;;31.22;51.06;100414.22;5075517;28;66388;-40
2022/09/25 07:39:15;;;;;;;3.13;1.92;;;;;;;31.23;50.82;100418.56;5078106;28;70759;-42
2022/09/25 07:41:49;;;;;;;3.28;2.13;;;;;;;31.24;50.61;100404.00;5077281;27;67166;-43
2022/09/25 07:44:21;;;;;;;2.63;1.85;;;;;;;31.10;50.15;100393.38;5075967;27;69749;-40
2022/09/25 07:47:02;;;;;;;2.30;1.52;;;;;;;31.20;50.40;100402.78;5074083;28;66788;-44
2022/09/25 07:49:35;;;;;;;3.13;1.92;;;;;;;31.28;50.25;100411.41;5076672;27;70506;-42
2022/09/25 07:52:08;;;;;;;5.47;1.85;;;;;;;31.31;49.78;100416.34;5076605;28;67068;-41
2022/09/25 07:54:41;;;;;;;2.50;2.08;;;;;;;31.10;49.66;100393.38;5075581;27;70311;-43
2022/09/25 07:57:15;;;;;;;2.85;2.08;;;;;;;31.17;49.78;100420.34;5075580;27;66548;-40
2022/09/25 07:59:47;;;;;;;5.10;1.95;;;;;;;31.26;49.99;100439.78;5074797;28;69994;-42
2022/09/25 08:02:20;;;;;;;6.35;1.65;;;;;;;31.24;50.04;100431.09;5076208;28;65552;-39
2022/09/25 08:04:55;;;;;;;6.88;1.77;;;;;;;31.26;50.01;100439.78;5076610;28;70649;-40
2022/09/25 08:07:28;;;;;;;5.68;2.20;;;;;;;31.19;49.79;100428.25;5076462;28;66835;-41
2022/09/25 08:10:00;;;;;;;11.43;2.45;;;;;;;31.23;50.11;100429.41;5077783;28;70588;-39
2022/09/25 08:12:33;;;;;;;16.70;2.47;;;;;;;31.20;49.77;100435.31;5078068;28;67054;-41
2022/09/25 08:15:06;;;;;;;7.05;2.50;;;;;;;31.20;49.52;100451.56;5076663;28;70739;-39
2022/09/25 08:17:39;;;;;;;4.88;2.40;;;;;;;31.10;49.95;100457.56;5077323;28;66384;-39
2022/09/25 08:20:12;;;;;;;10.82;2.63;;;;;;;31.09;50.25;100478.41;5074173;28;70589;-39
2022/09/25 08:22:45;;;;;;;4.85;2.60;;;;;;;31.08;50.46;100501.13;5077215;28;66183;-41
2022/09/25 08:25:17;;;;;;;16.85;2.95;;;;;;;31.07;49.99;100506.78;5074751;28;70540;-40
2022/09/25 08:27:50;;;;;;;8.80;2.95;;;;;;;31.09;51.51;100500.09;5077932;28;66465;-38
2022/09/25 08:30:23;;;;;;;5.10;2.72;;;;;;;30.88;55.13;100493.28;5077569;27;69871;-42
2022/09/25 08:32:56;;;;;;;5.22;2.53;;;;;;;30.94;56.61;100505.91;5075363;27;66380;-38
2022/09/25 08:35:28;;;;;;;11.93;2.90;;;;;;;30.64;59.85;100454.41;5078203;28;70093;-40
2022/09/25 08:38:01;;;;;;;6.32;3.15;;;;;;;30.98;62.25;100509.00;5078695;28;67184;-39
2022/09/25 08:40:38;;;;;;;4.88;2.72;;;;;;;30.97;63.84;100501.91;5073592;28;70176;-38
2022/09/25 08:43:21;;;;;;;11.32;2.95;;;;;;;31.03;64.99;100492.84;5075591;28;66373;-41
2022/09/25 08:49:08;;;;;;;10.02;3.50;;;;;;;31.02;65.54;100488.50;5071811;28;66858;-43
2022/09/25 08:51:51;;;;;;;5.87;2.73;;;;;;;31.04;65.78;100483.69;5075403;28;70878;-38
2022/09/25 08:54:26;;;;;;;4.72;2.80;;;;;;;31.05;66.62;100485.34;5069777;28;65919;-38
2022/09/25 08:57:28;;;;;;;10.35;2.65;;;;;;;30.62;67.04;100418.66;5073551;28;70860;-38
2022/09/25 09:00:13;;;;;;;4.97;2.20;;;;;;;31.03;67.26;100473.91;5076330;28;67067;-39
2022/09/25 09:02:57;;;;;;;5.00;2.35;;;;;;;30.99;67.88;100461.88;5068912;27;70434;-40
2022/09/25 09:05:36;;;;;;;11.82;2.72;;;;;;;30.55;67.75;100385.41;5075864;27;65925;-38
2022/09/25 09:08:19;;;;;;;3.33;1.73;;;;;;;30.94;68.43;100454.44;5077141;27;69944;-41
2022/09/25 09:11:03;;;;;;;8.15;2.28;;;;;;;30.64;68.86;100410.28;5078367;27;67022;-39
2022/09/25 09:14:04;;;;;;;7.20;2.13;;;;;;;30.99;68.95;100470.00;5077013;28;69927;-39
2022/09/25 09:16:54;;;;;;;2.28;1.98;;;;;;;30.80;70.16;100444.88;5078049;27;66752;-38
2022/09/25 09:19:27;;;;;;;3.60;2.25;;;;;;;30.92;70.40;100461.16;5060381;28;69864;-38
2022/09/25 09:22:11;;;;;;;5.32;2.30;;;;;;;30.99;70.58;100483.56;5057093;28;66977;-39
2022/09/25 09:24:57;;;;;;;18.75;2.58;;;;;;;30.55;70.76;100426.03;5069443;28;70921;-40
2022/09/25 09:27:36;;;;;;;5.72;2.28;;;;;;;30.19;71.51;100375.47;5072318;28;66917;-42
2022/09/25 09:30:11;;;;;;;3.65;2.30;;;;;;;31.04;71.90;100528.94;5073916;28;70636;-39
2022/09/25 09:33:05;;;;;;;14.23;2.50;;;;;;;30.96;71.61;100535.47;5074110;27;66787;-38
2022/09/25 09:36:26;;;;;;;3.03;2.28;;;;;;;30.95;71.67;100552.78;5077904;28;70798;-37
2022/09/25 09:39:17;;;;;;;2.65;2.45;;;;;;;30.91;71.86;100547.00;5045712;28;66736;-40
2022/09/25 09:41:57;;;;;;;9.80;3.08;;;;;;;30.96;71.57;100570.69;5076545;28;70562;-41
2022/09/25 09:44:57;;;;;;;4.05;2.97;;;;;;;30.94;72.23;100575.50;5077593;28;66602;-40
2022/09/25 09:47:41;;;;;;;7.95;3.15;;;;;;;30.91;72.38;100597.63;5076260;28;70951;-40
2022/09/25 09:50:44;;;;;;;11.02;4.57;;;;;;;30.86;73.58;100592.06;5071120;28;66735;-40
2022/09/25 09:53:57;;;;;;;21.55;9.38;;;;;;;30.92;73.39;100597.41;5075841;28;70069;-41
2022/09/25 09:56:31;;;;;;;24.08;15.48;;;;;;;30.94;74.72;100605.31;5057630;27;66226;-42
2022/09/25 09:59:25;;;;;;;24.33;15.68;;;;;;;30.44;75.52;100535.06;5071721;28;70989;-40
2022/09/25 10:02:04;;;;;;;29.17;15.65;;;;;;;30.44;75.49;100535.06;5076663;27;65776;-41
2022/09/25 10:04:40;;;;;;;36.47;13.60;;;;;;;30.86;75.55;100608.31;5058848;28;70665;-41
2022/09/25 10:07:18;;;;;;;35.70;13.57;;;;;;;30.95;75.75;100631.31;5075671;28;66610;-42
2022/09/25 10:09:54;;;;;;;25.60;11.85;;;;;;;30.94;75.72;100618.84;5074635;28;70970;-40
2022/09/25 10:12:32;;;;;;;18.20;10.23;;;;;;;30.55;74.78;100558.66;5076060;28;66462;-42
2022/09/25 10:15:17;;;;;;;15.45;9.48;;;;;;;30.38;74.98;100530.53;5075099;28;70331;-40
2022/09/25 10:17:50;;;;;;;19.38;12.00;;;;;;;30.92;76.12;100623.66;5076026;28;66682;-38
2022/09/25 10:20:26;;;;;;;24.17;13.40;;;;;;;30.94;75.96;100637.81;5075254;27;70685;-40
2022/09/25 10:23:02;;;;;;;21.45;13.25;;;;;;;30.90;75.94;100632.03;5079520;28;66821;-39
2022/09/25 10:25:37;;;;;;;25.30;14.43;;;;;;;30.92;75.96;100637.19;5082148;27;70762;-40
2022/09/25 10:28:22;;;;;;;23.88;14.13;;;;;;;30.87;76.14;100647.88;5080097;27;67209;-40
2022/09/25 10:30:57;;;;;;;23.38;16.30;;;;;;;30.65;76.44;100605.00;5077075;28;69725;-41
2022/09/25 10:33:31;;;;;;;23.00;15.07;;;;;;;30.53;75.77;100597.81;5076869;28;67549;-40
2022/09/25 10:36:04;;;;;;;22.13;15.18;;;;;;;30.89;76.10;100651.19;5061375;28;71347;-38
2022/09/25 10:38:54;;;;;;;20.58;14.93;;;;;;;30.82;76.77;100658.59;5081239;27;66780;-40
2022/09/25 10:41:47;;;;;;;17.75;14.75;;;;;;;30.87;76.62;100653.28;5077575;28;70341;-39
2022/09/25 10:44:33;;;;;;;20.50;15.35;;;;;;;30.83;76.42;100654.81;5079361;27;66759;-43
2022/09/25 10:50:20;;;;;;;14.95;13.43;;;;;;;30.21;77.21;100562.75;5075698;28;65667;-40
2022/09/25 10:52:59;;;;;;;13.35;12.02;;;;;;;30.77;77.11;100642.16;5078686;28;71340;-39
2022/09/25 10:55:38;;;;;;;13.13;11.93;;;;;;;30.81;77.73;100665.84;5077795;28;67198;-40
2022/09/25 10:58:11;;;;;;;16.88;12.00;;;;;;;30.81;77.71;100655.03;5077609;27;70227;-39
2022/09/25 11:00:57;;;;;;;12.10;11.00;;;;;;;30.29;77.49;100584.13;5076777;28;66409;-40
2022/09/25 11:03:38;;;;;;;12.45;11.18;;;;;;;30.72;77.78;100668.00;5075991;28;70943;-39
2022/09/25 11:06:28;;;;;;;13.00;11.40;;;;;;;30.72;78.13;100678.84;5078863;28;66850;-40
2022/09/25 11:09:09;;;;;;;16.45;11.38;;;;;;;30.78;77.75;100687.13;5078007;27;70555;-40
2022/09/25 11:11:45;;;;;;;12.73;11.50;;;;;;;30.76;77.87;100689.22;5074247;27;66866;-38
2022/09/25 11:14:31;;;;;;;10.95;10.05;;;;;;;30.76;77.98;100686.50;5076152;28;70731;-39
2022/09/25 11:17:05;;;;;;;11.63;10.52;;;;;;;30.27;78.37;100619.53;5079809;28;67408;-40
2022/09/25 11:19:38;;;;;;;12.20;10.95;;;;;;;30.72;77.91;100700.50;5079869;28;71116;-40
2022/09/25 11:22:36;;;;;;;10.93;9.45;;;;;;;30.65;78.54;100699.75;5077911;28;66275;-41
2022/09/25 11:25:37;;;;;;;10.30;9.25;;;;;;;30.54;78.30;100683.41;5079533;28;70567;-41
2022/09/25 11:28:16;;;;;;;9.55;8.75;;;;;;;30.70;78.75;100708.03;5078257;28;66722;-41
2022/09/25 11:31:01;;;;;;;10.55;9.23;;;;;;;30.66;78.46;100705.97;5080194;27;69755;-42
2022/09/25 11:33:41;;;;;;;9.75;8.80;;;;;;;30.69;78.69;100711.78;5079074;28;66858;-43
2022/09/25 11:36:16;;;;;;;10.10;9.15;;;;;;;30.68;79.24;100714.72;5075393;28;70514;-42
2022/09/25 11:41:54;;;;;;;9.90;8.88;;;;;;;30.66;79.72;100733.88;5076620;28;70801;-42
2022/09/25 11:44:34;;;;;;;9.23;8.50;;;;;;;30.69;79.89;100765.91;5078657;28;66267;-42
2022/09/25 11:47:18;;;;;;;9.77;8.90;;;;;;;30.71;79.43;100800.91;5080151;27;70180;-42
2022/09/25 11:49:53;;;;;;;10.35;9.35;;;;;;;30.71;79.30;100839.66;5072702;28;66901;-43
2022/09/25 11:52:41;;;;;;;9.60;8.77;;;;;;;30.65;78.80;100845.94;5073083;27;70816;-41
2022/09/25 11:55:32;;;;;;;9.73;9.05;;;;;;;30.68;78.81;100856.34;5078399;28;66895;-41
2022/09/25 11:58:32;;;;;;;9.30;8.60;;;;;;;30.11;78.54;100763.41;5070176;28;70998;-41
2022/09/25 12:01:31;;;;;;;7.55;6.80;;;;;;;30.61;79.00;100828.47;5074989;28;67080;-42
2022/09/25 12:04:43;;;;;;;7.97;7.38;;;;;;;30.47;78.14;100819.63;5073644;28;70258;-43
2022/09/25 12:07:40;;;;;;;7.38;6.78;;;;;;;30.59;78.41;100827.03;5080009;27;66220;-42
2022/09/25 12:10:23;;;;;;;8.98;6.60;;;;;;;30.11;78.49;100747.19;5071343;28;70656;-43
2022/09/25 12:13:19;;;;;;;6.70;6.20;;;;;;;30.51;79.22;100820.03;5078846;28;66332;-43
2022/09/25 12:16:13;;;;;;;10.88;6.72;;;;;;;30.55;78.87;100818.53;5074837;27;70416;-41
2022/09/25 12:19:00;;;;;;;6.85;5.85;;;;;;;30.59;79.60;100818.91;5074234;28;66070;-43
2022/09/25 12:21:51;;;;;;;6.60;5.90;;;;;;;30.59;79.53;100829.72;5079079;28;69823;-48
2022/09/25 12:24:42;;;;;;;8.75;5.60;;;;;;;30.57;79.63;100848.09;5074909;27;66456;-43
2022/09/25 12:27:34;;;;;;;9.88;6.13;;;;;;;30.61;78.93;100842.00;5075802;28;70221;-44
2022/09/25 12:30:22;;;;;;;6.18;5.50;;;;;;;30.21;78.47;100768.38;5081339;27;66876;-45
2022/09/25 12:33:11;;;;;;;4.93;4.25;;;;;;;30.64;78.88;100824.50;5078492;28;70547;-44
2022/09/25 12:36:06;;;;;;;6.45;4.93;;;;;;;30.46;78.93;100812.56;5072520;28;66451;-42
2022/09/25 12:39:20;;;;;;;8.25;4.20;;;;;;;30.14;79.35;100779.22;5076667;28;70959;-45